sensor_id;sensor_type;location;lat;lon;timestamp;P1;durP1;ratioP1;P2;durP2;ratioP2
33696;SDS011;20031;43.416;23.232;2023-08-07T00:00:03;3.38;;;1.25;;
33696;SDS011;20031;43.416;23.232;2023-08-07T00:02:29;2.38;;;1.40;;
33696;SDS011;20031;43.416;23.232;2023-08-07T00:04:54;4.38;;;1.60;;
33696;SDS011;20031;43.416;23.232;2023-08-07T00:07:20;7.43;;;1.95;;
33696;SDS011;20031;43.416;23.232;2023-08-07T00:09:46;9.63;;;3.08;;
33696;SDS011;20031;43.416;23.232;2023-08-07T00:12:11;7.53;;;2.30;;
33696;SDS011;20031;43.416;23.232;2023-08-07T00:14:37;5.10;;;2.60;;
33696;SDS011;20031;43.416;23.232;2023-08-07T00:17:02;7.75;;;2.00;;
33696;SDS011;20031;43.416;23.232;2023-08-07T00:19:29;3.70;;;1.45;;
33696;SDS011;20031;43.416;23.232;2023-08-07T00:21:54;1.65;;;1.05;;
33696;SDS011;20031;43.416;23.232;2023-08-07T00:24:20;4.75;;;1.20;;
33696;SDS011;20031;43.416;23.232;2023-08-07T00:26:45;1.88;;;1.13;;
33696;SDS011;20031;43.416;23.232;2023-08-07T00:29:11;2.55;;;1.17;;
33696;SDS011;20031;43.416;23.232;2023-08-07T00:31:36;1.92;;;1.10;;
33696;SDS011;20031;43.416;23.232;2023-08-07T00:34:01;3.22;;;1.10;;
33696;SDS011;20031;43.416;23.232;2023-08-07T00:36:29;1.50;;;1.08;;
33696;SDS011;20031;43.416;23.232;2023-08-07T00:38:56;1.67;;;1.00;;
33696;SDS011;20031;43.416;23.232;2023-08-07T00:41:21;5.68;;;1.20;;
33696;SDS011;20031;43.416;23.232;2023-08-07T00:43:47;4.57;;;1.30;;
33696;SDS011;20031;43.416;23.232;2023-08-07T00:46:12;5.13;;;1.45;;
33696;SDS011;20031;43.416;23.232;2023-08-07T00:48:38;4.57;;;1.38;;
33696;SDS011;20031;43.416;23.232;2023-08-07T00:51:04;1.85;;;1.20;;
33696;SDS011;20031;43.416;23.232;2023-08-07T00:53:32;2.15;;;1.33;;
33696;SDS011;20031;43.416;23.232;2023-08-07T00:55:58;1.85;;;1.27;;
33696;SDS011;20031;43.416;23.232;2023-08-07T00:58:25;3.85;;;1.20;;
33696;SDS011;20031;43.416;23.232;2023-08-07T01:00:50;3.38;;;1.08;;
33696;SDS011;20031;43.416;23.232;2023-08-07T01:03:16;5.28;;;1.50;;
33696;SDS011;20031;43.416;23.232;2023-08-07T01:05:41;7.82;;;1.30;;
33696;SDS011;20031;43.416;23.232;2023-08-07T01:08:07;4.13;;;1.20;;
33696;SDS011;20031;43.416;23.232;2023-08-07T01:13:14;4.75;;;1.20;;
33696;SDS011;20031;43.416;23.232;2023-08-07T01:15:49;1.42;;;1.20;;
33696;SDS011;20031;43.416;23.232;2023-08-07T01:18:19;5.72;;;1.30;;
33696;SDS011;20031;43.416;23.232;2023-08-07T01:20:46;1.10;;;1.00;;
33696;SDS011;20031;43.416;23.232;2023-08-07T01:23:11;5.05;;;1.20;;
33696;SDS011;20031;43.416;23.232;2023-08-07T01:25:37;8.05;;;1.20;;
33696;SDS011;20031;43.416;23.232;2023-08-07T01:28:06;2.33;;;1.20;;
33696;SDS011;20031;43.416;23.232;2023-08-07T01:30:47;6.35;;;1.20;;
33696;SDS011;20031;43.416;23.232;2023-08-07T01:35:49;1.42;;;0.90;;
33696;SDS011;20031;43.416;23.232;2023-08-07T01:38:18;2.85;;;0.98;;
33696;SDS011;20031;43.416;23.232;2023-08-07T01:40:46;10.25;;;1.30;;
33696;SDS011;20031;43.416;23.232;2023-08-07T01:43:13;6.97;;;1.08;;
33696;SDS011;20031;43.416;23.232;2023-08-07T01:45:39;4.63;;;1.10;;
33696;SDS011;20031;43.416;23.232;2023-08-07T01:48:04;4.05;;;1.10;;
33696;SDS011;20031;43.416;23.232;2023-08-07T01:50:30;1.58;;;0.90;;
33696;SDS011;20031;43.416;23.232;2023-08-07T01:52:55;1.77;;;1.00;;
33696;SDS011;20031;43.416;23.232;2023-08-07T01:55:22;2.05;;;1.00;;
33696;SDS011;20031;43.416;23.232;2023-08-07T01:57:48;3.80;;;0.80;;
33696;SDS011;20031;43.416;23.232;2023-08-07T02:00:13;6.25;;;1.02;;
33696;SDS011;20031;43.416;23.232;2023-08-07T02:02:39;1.52;;;0.90;;
33696;SDS011;20031;43.416;23.232;2023-08-07T02:05:04;2.58;;;0.93;;
33696;SDS011;20031;43.416;23.232;2023-08-07T02:07:30;6.15;;;1.00;;
33696;SDS011;20031;43.416;23.232;2023-08-07T02:09:56;4.60;;;0.90;;
33696;SDS011;20031;43.416;23.232;2023-08-07T02:12:22;2.15;;;1.05;;
33696;SDS011;20031;43.416;23.232;2023-08-07T02:14:48;2.25;;;0.70;;
33696;SDS011;20031;43.416;23.232;2023-08-07T02:17:13;1.48;;;0.90;;
33696;SDS011;20031;43.416;23.232;2023-08-07T02:19:39;2.67;;;0.80;;
33696;SDS011;20031;43.416;23.232;2023-08-07T02:22:04;3.20;;;0.90;;
33696;SDS011;20031;43.416;23.232;2023-08-07T02:24:30;1.67;;;0.80;;
33696;SDS011;20031;43.416;23.232;2023-08-07T02:26:56;5.13;;;0.80;;
33696;SDS011;20031;43.416;23.232;2023-08-07T02:29:21;0.75;;;0.70;;
33696;SDS011;20031;43.416;23.232;2023-08-07T02:31:47;2.13;;;1.00;;
33696;SDS011;20031;43.416;23.232;2023-08-07T02:34:12;5.57;;;0.80;;
33696;SDS011;20031;43.416;23.232;2023-08-07T02:36:38;2.88;;;0.88;;
33696;SDS011;20031;43.416;23.232;2023-08-07T02:39:03;6.03;;;0.98;;
33696;SDS011;20031;43.416;23.232;2023-08-07T02:41:29;1.17;;;0.73;;
33696;SDS011;20031;43.416;23.232;2023-08-07T02:43:56;1.95;;;1.08;;
33696;SDS011;20031;43.416;23.232;2023-08-07T02:46:21;7.40;;;1.00;;
33696;SDS011;20031;43.416;23.232;2023-08-07T02:48:47;1.88;;;1.00;;
33696;SDS011;20031;43.416;23.232;2023-08-07T02:51:12;2.03;;;1.00;;
33696;SDS011;20031;43.416;23.232;2023-08-07T02:53:37;1.63;;;0.90;;
33696;SDS011;20031;43.416;23.232;2023-08-07T02:56:03;0.93;;;0.80;;
33696;SDS011;20031;43.416;23.232;2023-08-07T02:58:28;3.25;;;1.00;;
33696;SDS011;20031;43.416;23.232;2023-08-07T03:00:54;13.63;;;5.05;;
33696;SDS011;20031;43.416;23.232;2023-08-07T03:03:20;15.65;;;4.53;;
33696;SDS011;20031;43.416;23.232;2023-08-07T03:05:51;11.80;;;3.78;;
33696;SDS011;20031;43.416;23.232;2023-08-07T03:08:17;13.25;;;3.80;;
33696;SDS011;20031;43.416;23.232;2023-08-07T03:10:49;6.63;;;2.35;;
33696;SDS011;20031;43.416;23.232;2023-08-07T03:13:16;9.85;;;2.63;;
33696;SDS011;20031;43.416;23.232;2023-08-07T03:15:42;11.00;;;1.75;;
33696;SDS011;20031;43.416;23.232;2023-08-07T03:18:07;9.48;;;1.60;;
33696;SDS011;20031;43.416;23.232;2023-08-07T03:20:32;8.45;;;1.70;;
33696;SDS011;20031;43.416;23.232;2023-08-07T03:22:58;4.78;;;1.20;;
33696;SDS011;20031;43.416;23.232;2023-08-07T03:25:23;6.97;;;1.35;;
33696;SDS011;20031;43.416;23.232;2023-08-07T03:27:49;9.45;;;1.30;;
33696;SDS011;20031;43.416;23.232;2023-08-07T03:30:14;2.20;;;1.15;;
33696;SDS011;20031;43.416;23.232;2023-08-07T03:32:39;5.78;;;1.20;;
33696;SDS011;20031;43.416;23.232;2023-08-07T03:35:06;7.43;;;1.40;;
33696;SDS011;20031;43.416;23.232;2023-08-07T03:37:32;6.45;;;1.25;;
33696;SDS011;20031;43.416;23.232;2023-08-07T03:39:57;5.30;;;1.40;;
33696;SDS011;20031;43.416;23.232;2023-08-07T03:42:23;4.38;;;1.38;;
33696;SDS011;20031;43.416;23.232;2023-08-07T03:44:48;7.07;;;1.40;;
33696;SDS011;20031;43.416;23.232;2023-08-07T03:47:14;5.47;;;1.73;;
33696;SDS011;20031;43.416;23.232;2023-08-07T03:49:39;5.72;;;1.40;;
33696;SDS011;20031;43.416;23.232;2023-08-07T03:52:05;7.53;;;2.60;;
33696;SDS011;20031;43.416;23.232;2023-08-07T03:54:30;6.60;;;1.85;;
33696;SDS011;20031;43.416;23.232;2023-08-07T03:56:56;6.32;;;1.50;;
33696;SDS011;20031;43.416;23.232;2023-08-07T03:59:21;6.55;;;2.45;;
33696;SDS011;20031;43.416;23.232;2023-08-07T04:01:47;6.93;;;1.73;;
33696;SDS011;20031;43.416;23.232;2023-08-07T04:04:12;6.85;;;1.38;;
33696;SDS011;20031;43.416;23.232;2023-08-07T04:06:38;7.18;;;1.17;;
33696;SDS011;20031;43.416;23.232;2023-08-07T04:09:03;5.80;;;1.80;;
33696;SDS011;20031;43.416;23.232;2023-08-07T04:11:29;4.25;;;2.13;;
33696;SDS011;20031;43.416;23.232;2023-08-07T04:13:54;9.82;;;2.40;;
33696;SDS011;20031;43.416;23.232;2023-08-07T04:16:19;10.90;;;2.42;;
33696;SDS011;20031;43.416;23.232;2023-08-07T04:18:45;6.85;;;3.10;;
33696;SDS011;20031;43.416;23.232;2023-08-07T04:21:10;10.23;;;2.80;;
33696;SDS011;20031;43.416;23.232;2023-08-07T04:23:36;23.17;;;10.32;;
33696;SDS011;20031;43.416;23.232;2023-08-07T04:26:01;23.83;;;7.82;;
33696;SDS011;20031;43.416;23.232;2023-08-07T04:28:28;8.27;;;2.40;;
33696;SDS011;20031;43.416;23.232;2023-08-07T04:30:54;9.40;;;1.65;;
33696;SDS011;20031;43.416;23.232;2023-08-07T04:33:20;6.22;;;1.60;;
33696;SDS011;20031;43.416;23.232;2023-08-07T04:35:46;7.20;;;1.60;;
33696;SDS011;20031;43.416;23.232;2023-08-07T04:38:12;8.18;;;1.83;;
33696;SDS011;20031;43.416;23.232;2023-08-07T04:40:47;6.95;;;2.22;;
33696;SDS011;20031;43.416;23.232;2023-08-07T04:43:14;11.82;;;3.85;;
33696;SDS011;20031;43.416;23.232;2023-08-07T04:45:41;29.65;;;10.57;;
33696;SDS011;20031;43.416;23.232;2023-08-07T04:48:07;31.55;;;9.55;;
33696;SDS011;20031;43.416;23.232;2023-08-07T04:50:33;27.65;;;3.25;;
33696;SDS011;20031;43.416;23.232;2023-08-07T04:52:59;17.85;;;8.50;;
33696;SDS011;20031;43.416;23.232;2023-08-07T04:55:25;13.63;;;6.50;;
33696;SDS011;20031;43.416;23.232;2023-08-07T04:57:50;4.70;;;1.20;;
33696;SDS011;20031;43.416;23.232;2023-08-07T05:00:19;8.15;;;2.58;;
33696;SDS011;20031;43.416;23.232;2023-08-07T05:02:44;4.60;;;1.80;;
33696;SDS011;20031;43.416;23.232;2023-08-07T05:05:10;3.75;;;1.20;;
33696;SDS011;20031;43.416;23.232;2023-08-07T05:07:36;2.40;;;1.20;;
33696;SDS011;20031;43.416;23.232;2023-08-07T05:10:02;3.40;;;1.50;;
33696;SDS011;20031;43.416;23.232;2023-08-07T05:12:28;2.15;;;0.95;;
33696;SDS011;20031;43.416;23.232;2023-08-07T05:14:53;1.92;;;1.20;;
33696;SDS011;20031;43.416;23.232;2023-08-07T05:17:19;2.95;;;0.90;;
33696;SDS011;20031;43.416;23.232;2023-08-07T05:19:44;2.10;;;0.90;;
33696;SDS011;20031;43.416;23.232;2023-08-07T05:22:10;2.05;;;0.90;;
33696;SDS011;20031;43.416;23.232;2023-08-07T05:24:35;3.95;;;1.35;;
33696;SDS011;20031;43.416;23.232;2023-08-07T05:27:05;3.75;;;1.33;;
33696;SDS011;20031;43.416;23.232;2023-08-07T05:29:33;5.05;;;1.50;;
33696;SDS011;20031;43.416;23.232;2023-08-07T05:31:59;13.02;;;2.30;;
33696;SDS011;20031;43.416;23.232;2023-08-07T05:34:24;3.72;;;1.10;;
33696;SDS011;20031;43.416;23.232;2023-08-07T05:36:50;6.93;;;1.05;;
33696;SDS011;20031;43.416;23.232;2023-08-07T05:39:15;4.70;;;1.10;;
33696;SDS011;20031;43.416;23.232;2023-08-07T05:41:40;9.02;;;1.25;;
33696;SDS011;20031;43.416;23.232;2023-08-07T05:44:06;6.82;;;1.67;;
33696;SDS011;20031;43.416;23.232;2023-08-07T05:46:31;7.32;;;1.25;;
33696;SDS011;20031;43.416;23.232;2023-08-07T05:48:57;2.00;;;1.27;;
33696;SDS011;20031;43.416;23.232;2023-08-07T05:51:22;5.57;;;1.48;;
33696;SDS011;20031;43.416;23.232;2023-08-07T05:53:47;3.75;;;1.35;;
33696;SDS011;20031;43.416;23.232;2023-08-07T05:56:13;4.15;;;1.10;;
33696;SDS011;20031;43.416;23.232;2023-08-07T05:58:38;4.95;;;1.30;;
33696;SDS011;20031;43.416;23.232;2023-08-07T06:01:06;3.58;;;1.40;;
33696;SDS011;20031;43.416;23.232;2023-08-07T06:03:43;1.83;;;1.30;;
33696;SDS011;20031;43.416;23.232;2023-08-07T06:06:10;2.35;;;1.38;;
33696;SDS011;20031;43.416;23.232;2023-08-07T06:08:37;4.80;;;1.25;;
33696;SDS011;20031;43.416;23.232;2023-08-07T06:11:03;4.50;;;1.17;;
33696;SDS011;20031;43.416;23.232;2023-08-07T06:13:30;1.73;;;1.20;;
33696;SDS011;20031;43.416;23.232;2023-08-07T06:15:58;8.27;;;1.40;;
33696;SDS011;20031;43.416;23.232;2023-08-07T06:18:23;2.65;;;1.00;;
33696;SDS011;20031;43.416;23.232;2023-08-07T06:20:49;2.08;;;1.00;;
33696;SDS011;20031;43.416;23.232;2023-08-07T06:23:14;5.18;;;1.00;;
33696;SDS011;20031;43.416;23.232;2023-08-07T06:25:40;5.07;;;1.00;;
33696;SDS011;20031;43.416;23.232;2023-08-07T06:28:05;3.80;;;1.02;;
33696;SDS011;20031;43.416;23.232;2023-08-07T06:30:31;2.97;;;1.00;;
33696;SDS011;20031;43.416;23.232;2023-08-07T06:32:56;1.77;;;0.93;;
33696;SDS011;20031;43.416;23.232;2023-08-07T06:35:22;1.55;;;0.80;;
33696;SDS011;20031;43.416;23.232;2023-08-07T06:37:48;0.70;;;0.70;;
33696;SDS011;20031;43.416;23.232;2023-08-07T06:40:13;5.18;;;0.73;;
33696;SDS011;20031;43.416;23.232;2023-08-07T06:42:39;2.45;;;0.60;;
33696;SDS011;20031;43.416;23.232;2023-08-07T06:45:05;2.20;;;0.80;;
33696;SDS011;20031;43.416;23.232;2023-08-07T06:47:31;2.22;;;0.80;;
33696;SDS011;20031;43.416;23.232;2023-08-07T06:49:57;4.22;;;0.80;;
33696;SDS011;20031;43.416;23.232;2023-08-07T06:52:22;3.53;;;0.85;;
33696;SDS011;20031;43.416;23.232;2023-08-07T06:54:48;1.08;;;0.63;;
33696;SDS011;20031;43.416;23.232;2023-08-07T06:57:13;1.63;;;0.70;;
33696;SDS011;20031;43.416;23.232;2023-08-07T06:59:39;1.00;;;0.70;;
33696;SDS011;20031;43.416;23.232;2023-08-07T07:02:05;0.80;;;0.70;;
33696;SDS011;20031;43.416;23.232;2023-08-07T07:04:31;0.90;;;0.75;;
33696;SDS011;20031;43.416;23.232;2023-08-07T07:06:56;1.63;;;1.10;;
33696;SDS011;20031;43.416;23.232;2023-08-07T07:09:22;2.78;;;0.57;;
33696;SDS011;20031;43.416;23.232;2023-08-07T07:11:47;1.05;;;0.70;;
33696;SDS011;20031;43.416;23.232;2023-08-07T07:14:13;2.67;;;0.65;;
33696;SDS011;20031;43.416;23.232;2023-08-07T07:16:38;2.13;;;0.73;;
33696;SDS011;20031;43.416;23.232;2023-08-07T07:19:04;8.07;;;0.90;;
33696;SDS011;20031;43.416;23.232;2023-08-07T07:21:31;2.97;;;0.40;;
33696;SDS011;20031;43.416;23.232;2023-08-07T07:23:56;3.53;;;0.90;;
33696;SDS011;20031;43.416;23.232;2023-08-07T07:26:21;0.85;;;0.70;;
33696;SDS011;20031;43.416;23.232;2023-08-07T07:28:47;2.28;;;0.80;;
33696;SDS011;20031;43.416;23.232;2023-08-07T07:31:12;2.35;;;0.82;;
33696;SDS011;20031;43.416;23.232;2023-08-07T07:33:38;6.07;;;1.10;;
33696;SDS011;20031;43.416;23.232;2023-08-07T07:36:04;1.02;;;0.50;;
33696;SDS011;20031;43.416;23.232;2023-08-07T07:38:31;2.25;;;0.60;;
33696;SDS011;20031;43.416;23.232;2023-08-07T07:40:57;2.05;;;0.75;;
33696;SDS011;20031;43.416;23.232;2023-08-07T07:43:23;1.13;;;0.85;;
33696;SDS011;20031;43.416;23.232;2023-08-07T07:45:48;1.65;;;0.55;;
33696;SDS011;20031;43.416;23.232;2023-08-07T07:48:14;1.75;;;0.70;;
33696;SDS011;20031;43.416;23.232;2023-08-07T07:50:40;1.27;;;0.60;;
33696;SDS011;20031;43.416;23.232;2023-08-07T07:53:06;2.70;;;0.70;;
33696;SDS011;20031;43.416;23.232;2023-08-07T07:55:31;1.73;;;0.75;;
33696;SDS011;20031;43.416;23.232;2023-08-07T07:57:57;0.82;;;0.60;;
33696;SDS011;20031;43.416;23.232;2023-08-07T08:00:23;9.30;;;0.80;;
33696;SDS011;20031;43.416;23.232;2023-08-07T08:02:52;1.33;;;0.60;;
33696;SDS011;20031;43.416;23.232;2023-08-07T08:05:18;1.17;;;0.60;;
33696;SDS011;20031;43.416;23.232;2023-08-07T08:07:44;4.30;;;0.80;;
33696;SDS011;20031;43.416;23.232;2023-08-07T08:10:10;3.20;;;0.80;;
33696;SDS011;20031;43.416;23.232;2023-08-07T08:12:36;2.05;;;0.70;;
33696;SDS011;20031;43.416;23.232;2023-08-07T08:15:02;2.00;;;0.50;;
33696;SDS011;20031;43.416;23.232;2023-08-07T08:17:28;1.27;;;0.55;;
33696;SDS011;20031;43.416;23.232;2023-08-07T08:19:54;0.50;;;0.40;;
33696;SDS011;20031;43.416;23.232;2023-08-07T08:22:19;0.40;;;0.40;;
33696;SDS011;20031;43.416;23.232;2023-08-07T08:24:45;0.90;;;0.50;;
33696;SDS011;20031;43.416;23.232;2023-08-07T08:27:10;1.80;;;0.50;;
33696;SDS011;20031;43.416;23.232;2023-08-07T08:29:36;4.47;;;0.57;;
33696;SDS011;20031;43.416;23.232;2023-08-07T08:32:01;4.30;;;0.60;;
33696;SDS011;20031;43.416;23.232;2023-08-07T08:34:27;0.50;;;0.50;;
33696;SDS011;20031;43.416;23.232;2023-08-07T08:36:52;2.42;;;0.50;;
33696;SDS011;20031;43.416;23.232;2023-08-07T08:39:18;2.55;;;0.65;;
33696;SDS011;20031;43.416;23.232;2023-08-07T08:41:45;1.77;;;0.60;;
33696;SDS011;20031;43.416;23.232;2023-08-07T08:44:12;3.05;;;0.60;;
33696;SDS011;20031;43.416;23.232;2023-08-07T08:46:39;1.90;;;0.60;;
33696;SDS011;20031;43.416;23.232;2023-08-07T08:49:07;1.00;;;0.60;;
33696;SDS011;20031;43.416;23.232;2023-08-07T08:51:35;0.70;;;0.50;;
33696;SDS011;20031;43.416;23.232;2023-08-07T08:54:02;3.05;;;0.80;;
33696;SDS011;20031;43.416;23.232;2023-08-07T08:56:28;2.50;;;0.70;;
33696;SDS011;20031;43.416;23.232;2023-08-07T08:58:58;2.67;;;0.40;;
33696;SDS011;20031;43.416;23.232;2023-08-07T09:01:23;0.77;;;0.60;;
33696;SDS011;20031;43.416;23.232;2023-08-07T09:03:49;1.58;;;0.60;;
33696;SDS011;20031;43.416;23.232;2023-08-07T09:06:17;2.65;;;0.60;;
33696;SDS011;20031;43.416;23.232;2023-08-07T09:08:43;0.50;;;0.50;;
33696;SDS011;20031;43.416;23.232;2023-08-07T09:11:10;0.75;;;0.45;;
33696;SDS011;20031;43.416;23.232;2023-08-07T09:13:39;0.43;;;0.43;;
33696;SDS011;20031;43.416;23.232;2023-08-07T09:16:07;1.52;;;0.50;;
33696;SDS011;20031;43.416;23.232;2023-08-07T09:18:34;0.57;;;0.50;;
33696;SDS011;20031;43.416;23.232;2023-08-07T09:21:00;1.95;;;0.40;;
33696;SDS011;20031;43.416;23.232;2023-08-07T09:23:26;2.30;;;1.17;;
33696;SDS011;20031;43.416;23.232;2023-08-07T09:26:03;1.58;;;0.50;;
33696;SDS011;20031;43.416;23.232;2023-08-07T09:28:29;0.68;;;0.60;;
33696;SDS011;20031;43.416;23.232;2023-08-07T09:30:55;2.67;;;0.63;;
33696;SDS011;20031;43.416;23.232;2023-08-07T09:33:28;1.30;;;0.50;;
33696;SDS011;20031;43.416;23.232;2023-08-07T09:35:59;1.50;;;0.98;;
33696;SDS011;20031;43.416;23.232;2023-08-07T09:38:29;1.33;;;0.43;;
33696;SDS011;20031;43.416;23.232;2023-08-07T09:40:58;4.88;;;2.05;;
33696;SDS011;20031;43.416;23.232;2023-08-07T09:43:24;2.83;;;0.70;;
33696;SDS011;20031;43.416;23.232;2023-08-07T09:45:50;0.50;;;0.50;;
33696;SDS011;20031;43.416;23.232;2023-08-07T09:48:22;1.15;;;0.75;;
33696;SDS011;20031;43.416;23.232;2023-08-07T09:50:49;1.20;;;0.50;;
33696;SDS011;20031;43.416;23.232;2023-08-07T09:53:15;1.88;;;0.60;;
33696;SDS011;20031;43.416;23.232;2023-08-07T09:55:41;1.52;;;0.70;;
33696;SDS011;20031;43.416;23.232;2023-08-07T09:58:07;0.80;;;0.57;;
33696;SDS011;20031;43.416;23.232;2023-08-07T10:00:34;1.40;;;0.68;;
33696;SDS011;20031;43.416;23.232;2023-08-07T10:03:00;0.60;;;0.55;;
33696;SDS011;20031;43.416;23.232;2023-08-07T10:05:26;1.60;;;0.38;;
33696;SDS011;20031;43.416;23.232;2023-08-07T10:07:52;0.70;;;0.50;;
33696;SDS011;20031;43.416;23.232;2023-08-07T10:10:20;0.75;;;0.57;;
33696;SDS011;20031;43.416;23.232;2023-08-07T10:12:46;1.15;;;0.50;;
33696;SDS011;20031;43.416;23.232;2023-08-07T10:15:13;0.60;;;0.50;;
33696;SDS011;20031;43.416;23.232;2023-08-07T10:17:39;0.45;;;0.40;;
33696;SDS011;20031;43.416;23.232;2023-08-07T10:20:06;1.85;;;0.55;;
33696;SDS011;20031;43.416;23.232;2023-08-07T10:22:33;1.40;;;0.80;;
33696;SDS011;20031;43.416;23.232;2023-08-07T10:25:02;0.80;;;0.60;;
33696;SDS011;20031;43.416;23.232;2023-08-07T10:27:29;1.80;;;0.60;;
33696;SDS011;20031;43.416;23.232;2023-08-07T10:29:57;0.47;;;0.47;;
33696;SDS011;20031;43.416;23.232;2023-08-07T10:32:25;0.57;;;0.50;;
33696;SDS011;20031;43.416;23.232;2023-08-07T10:34:52;1.40;;;0.60;;
33696;SDS011;20031;43.416;23.232;2023-08-07T10:37:31;1.13;;;0.60;;
33696;SDS011;20031;43.416;23.232;2023-08-07T10:40:03;2.00;;;0.60;;
33696;SDS011;20031;43.416;23.232;2023-08-07T10:45:38;1.00;;;0.60;;
33696;SDS011;20031;43.416;23.232;2023-08-07T10:48:07;2.88;;;0.63;;
33696;SDS011;20031;43.416;23.232;2023-08-07T10:50:48;2.15;;;0.60;;
33696;SDS011;20031;43.416;23.232;2023-08-07T10:56:18;1.25;;;0.50;;
33696;SDS011;20031;43.416;23.232;2023-08-07T10:58:54;7.28;;;0.52;;
33696;SDS011;20031;43.416;23.232;2023-08-07T11:03:49;1.05;;;0.90;;
33696;SDS011;20031;43.416;23.232;2023-08-07T11:06:25;2.00;;;0.50;;
33696;SDS011;20031;43.416;23.232;2023-08-07T11:09:02;6.95;;;0.70;;
33696;SDS011;20031;43.416;23.232;2023-08-07T11:11:32;6.68;;;0.93;;
33696;SDS011;20031;43.416;23.232;2023-08-07T11:14:08;0.85;;;0.60;;
33696;SDS011;20031;43.416;23.232;2023-08-07T11:16:35;4.63;;;0.80;;
33696;SDS011;20031;43.416;23.232;2023-08-07T11:19:01;1.25;;;0.70;;
33696;SDS011;20031;43.416;23.232;2023-08-07T11:21:27;3.33;;;0.88;;
33696;SDS011;20031;43.416;23.232;2023-08-07T11:23:53;0.75;;;0.57;;
33696;SDS011;20031;43.416;23.232;2023-08-07T11:26:19;1.35;;;0.80;;
33696;SDS011;20031;43.416;23.232;2023-08-07T11:28:49;4.47;;;0.65;;
33696;SDS011;20031;43.416;23.232;2023-08-07T11:31:15;3.13;;;0.55;;
33696;SDS011;20031;43.416;23.232;2023-08-07T11:33:42;2.42;;;0.70;;
33696;SDS011;20031;43.416;23.232;2023-08-07T11:36:11;1.35;;;0.65;;
33696;SDS011;20031;43.416;23.232;2023-08-07T11:38:41;1.40;;;0.60;;
33696;SDS011;20031;43.416;23.232;2023-08-07T11:41:11;0.73;;;0.60;;
33696;SDS011;20031;43.416;23.232;2023-08-07T11:43:38;1.05;;;0.60;;
33696;SDS011;20031;43.416;23.232;2023-08-07T11:46:04;0.68;;;0.60;;
33696;SDS011;20031;43.416;23.232;2023-08-07T11:48:32;3.10;;;0.70;;
33696;SDS011;20031;43.416;23.232;2023-08-07T11:50:58;1.00;;;0.70;;
33696;SDS011;20031;43.416;23.232;2023-08-07T11:53:25;1.23;;;0.80;;
33696;SDS011;20031;43.416;23.232;2023-08-07T11:55:56;1.38;;;0.60;;
33696;SDS011;20031;43.416;23.232;2023-08-07T11:58:25;1.30;;;0.70;;
33696;SDS011;20031;43.416;23.232;2023-08-07T12:00:51;2.08;;;0.60;;
33696;SDS011;20031;43.416;23.232;2023-08-07T12:03:27;1.88;;;0.70;;
33696;SDS011;20031;43.416;23.232;2023-08-07T12:05:55;1.83;;;0.60;;
33696;SDS011;20031;43.416;23.232;2023-08-07T12:08:22;2.72;;;1.40;;
33696;SDS011;20031;43.416;23.232;2023-08-07T12:10:51;0.90;;;0.68;;
33696;SDS011;20031;43.416;23.232;2023-08-07T12:13:24;2.47;;;0.70;;
33696;SDS011;20031;43.416;23.232;2023-08-07T12:15:54;0.90;;;0.70;;
33696;SDS011;20031;43.416;23.232;2023-08-07T12:18:20;1.40;;;0.68;;
33696;SDS011;20031;43.416;23.232;2023-08-07T12:20:48;1.63;;;0.70;;
33696;SDS011;20031;43.416;23.232;2023-08-07T12:23:15;0.63;;;0.57;;
33696;SDS011;20031;43.416;23.232;2023-08-07T12:25:42;1.48;;;0.65;;
33696;SDS011;20031;43.416;23.232;2023-08-07T12:28:08;2.20;;;0.70;;
33696;SDS011;20031;43.416;23.232;2023-08-07T12:30:34;0.95;;;0.60;;
33696;SDS011;20031;43.416;23.232;2023-08-07T12:33:00;0.98;;;0.70;;
33696;SDS011;20031;43.416;23.232;2023-08-07T12:35:26;2.90;;;0.70;;
33696;SDS011;20031;43.416;23.232;2023-08-07T12:37:51;2.97;;;1.00;;
33696;SDS011;20031;43.416;23.232;2023-08-07T12:40:16;3.88;;;0.60;;
33696;SDS011;20031;43.416;23.232;2023-08-07T12:42:45;1.67;;;0.55;;
33696;SDS011;20031;43.416;23.232;2023-08-07T12:45:11;2.17;;;0.75;;
33696;SDS011;20031;43.416;23.232;2023-08-07T12:47:36;1.35;;;0.65;;
33696;SDS011;20031;43.416;23.232;2023-08-07T12:50:02;4.13;;;0.80;;
33696;SDS011;20031;43.416;23.232;2023-08-07T12:52:28;3.00;;;0.77;;
33696;SDS011;20031;43.416;23.232;2023-08-07T12:54:54;2.45;;;0.90;;
33696;SDS011;20031;43.416;23.232;2023-08-07T12:57:20;2.00;;;0.80;;
33696;SDS011;20031;43.416;23.232;2023-08-07T12:59:45;2.22;;;0.70;;
33696;SDS011;20031;43.416;23.232;2023-08-07T13:02:11;2.35;;;0.70;;
33696;SDS011;20031;43.416;23.232;2023-08-07T13:04:36;2.80;;;0.70;;
33696;SDS011;20031;43.416;23.232;2023-08-07T13:07:02;1.38;;;0.63;;
33696;SDS011;20031;43.416;23.232;2023-08-07T13:09:27;1.98;;;0.60;;
33696;SDS011;20031;43.416;23.232;2023-08-07T13:11:53;3.50;;;0.80;;
33696;SDS011;20031;43.416;23.232;2023-08-07T13:14:18;1.50;;;0.90;;
33696;SDS011;20031;43.416;23.232;2023-08-07T13:16:44;0.80;;;0.60;;
33696;SDS011;20031;43.416;23.232;2023-08-07T13:19:09;4.05;;;0.80;;
33696;SDS011;20031;43.416;23.232;2023-08-07T13:21:34;1.50;;;0.77;;
33696;SDS011;20031;43.416;23.232;2023-08-07T13:24:00;1.92;;;0.80;;
33696;SDS011;20031;43.416;23.232;2023-08-07T13:26:25;2.70;;;0.90;;
33696;SDS011;20031;43.416;23.232;2023-08-07T13:28:51;0.85;;;0.70;;
33696;SDS011;20031;43.416;23.232;2023-08-07T13:31:17;3.00;;;0.80;;
33696;SDS011;20031;43.416;23.232;2023-08-07T13:33:42;4.65;;;0.90;;
33696;SDS011;20031;43.416;23.232;2023-08-07T13:36:08;3.78;;;1.20;;
33696;SDS011;20031;43.416;23.232;2023-08-07T13:38:33;2.10;;;0.80;;
33696;SDS011;20031;43.416;23.232;2023-08-07T13:40:58;2.25;;;0.90;;
33696;SDS011;20031;43.416;23.232;2023-08-07T13:43:24;2.17;;;1.10;;
33696;SDS011;20031;43.416;23.232;2023-08-07T13:45:49;2.67;;;1.00;;
33696;SDS011;20031;43.416;23.232;2023-08-07T13:48:16;5.35;;;1.10;;
33696;SDS011;20031;43.416;23.232;2023-08-07T13:50:42;2.83;;;0.95;;
33696;SDS011;20031;43.416;23.232;2023-08-07T13:53:08;1.70;;;0.70;;
33696;SDS011;20031;43.416;23.232;2023-08-07T13:55:33;2.33;;;1.10;;
33696;SDS011;20031;43.416;23.232;2023-08-07T13:57:59;2.20;;;1.40;;
33696;SDS011;20031;43.416;23.232;2023-08-07T14:00:24;3.00;;;1.10;;
33696;SDS011;20031;43.416;23.232;2023-08-07T14:02:51;2.17;;;1.10;;
33696;SDS011;20031;43.416;23.232;2023-08-07T14:05:16;1.02;;;0.90;;
33696;SDS011;20031;43.416;23.232;2023-08-07T14:07:41;2.35;;;0.95;;
33696;SDS011;20031;43.416;23.232;2023-08-07T14:10:07;1.52;;;0.90;;
33696;SDS011;20031;43.416;23.232;2023-08-07T14:12:33;1.75;;;1.00;;
33696;SDS011;20031;43.416;23.232;2023-08-07T14:14:58;5.68;;;1.27;;
33696;SDS011;20031;43.416;23.232;2023-08-07T14:17:24;2.85;;;0.90;;
33696;SDS011;20031;43.416;23.232;2023-08-07T14:19:49;5.45;;;1.10;;
33696;SDS011;20031;43.416;23.232;2023-08-07T14:22:14;2.17;;;0.90;;
33696;SDS011;20031;43.416;23.232;2023-08-07T14:24:40;3.67;;;1.00;;
33696;SDS011;20031;43.416;23.232;2023-08-07T14:27:05;4.72;;;0.93;;
33696;SDS011;20031;43.416;23.232;2023-08-07T14:29:31;2.28;;;0.90;;
33696;SDS011;20031;43.416;23.232;2023-08-07T14:31:56;3.00;;;0.90;;
33696;SDS011;20031;43.416;23.232;2023-08-07T14:34:22;3.45;;;1.00;;
33696;SDS011;20031;43.416;23.232;2023-08-07T14:36:47;5.32;;;1.48;;
33696;SDS011;20031;43.416;23.232;2023-08-07T14:39:12;5.13;;;1.80;;
33696;SDS011;20031;43.416;23.232;2023-08-07T14:41:38;4.82;;;2.20;;